KDLS/DLS METAR and TAF weather

Enter ICAO airport designator
Station Type Date Time Source
KDLS METAR 2022/07/01 00:53 UTC NOAA

KDLS 010053Z AUTO 33011KT 10SM CLR 31/11 A2991 RMK AO2 SLP127 T03110106


Station Type Date Time Source
KDLS Decoded METAR 2022/07/01 00:53 UTC NOAA

THE DALLES MUNICIPAL AIRPORT , OR, United States (KDLS) 45-37N 121-10W 71M
Jun 30, 2022 - 08:53 PM EDT / 2022.07.01 0053 UTC
Wind: from the NNW (330 degrees) at 13 MPH (11 KT):0
Visibility: 10 mile(s):0
Sky conditions: clear
Temperature: 88.0 F (31.1 C)
Dew Point: 51.1 F (10.6 C)
Relative Humidity: 28%
Pressure (altimeter): 29.91 in. Hg (1012 hPa)
ob: KDLS 010053Z AUTO 33011KT 10SM CLR 31/11 A2991 RMK AO2 SLP127 T03110106
cycle: 1

Station Type Date Time Source
KDLS TAF 2022/06/30 18:28 UTC NOAA

TAF KDLS 301726Z 3018/0118 32010KT P6SM SCT250
FM010000 31007KT P6SM SKC

Example: see airport list